createdAt,value
2023-01-27T00:09:09.842Z,39.63
2023-01-27T00:19:11.378Z,39.79
2023-01-27T00:29:12.902Z,39.68
2023-01-27T00:39:16.404Z,39.44
2023-01-27T00:49:18.150Z,39.11
2023-01-27T00:59:19.568Z,39.10
2023-01-27T01:09:21.084Z,38.67
2023-01-27T01:19:22.904Z,38.53
2023-01-27T01:29:24.427Z,38.46
2023-01-27T01:39:25.804Z,38.41
2023-01-27T01:49:35.461Z,38.59
2023-01-27T01:59:40.132Z,38.29
2023-01-27T02:09:41.560Z,38.18
2023-01-27T02:20:03.034Z,38.39
2023-01-27T02:30:04.695Z,38.27
2023-01-27T02:40:06.548Z,38.56
2023-01-27T02:50:08.476Z,38.62
2023-01-27T03:00:13.108Z,38.95
2023-01-27T03:10:14.531Z,38.99
2023-01-27T03:20:16.071Z,39.23
2023-01-27T03:30:17.487Z,39.36
2023-01-27T03:40:37.593Z,39.50
2023-01-27T03:50:43.037Z,39.66
2023-01-27T04:00:45.989Z,39.64
2023-01-27T04:11:07.349Z,39.61
2023-01-27T04:21:08.734Z,39.50
2023-01-27T04:31:10.215Z,39.12
2023-01-27T04:41:11.917Z,39.10
2023-01-27T04:51:13.302Z,38.83
2023-01-27T05:01:14.667Z,38.77
2023-01-27T05:11:16.212Z,38.56
2023-01-27T05:21:22.326Z,38.52
2023-01-27T05:31:25.730Z,38.42
2023-01-27T05:41:28.787Z,38.44
2023-01-27T05:51:31.057Z,38.46
2023-01-27T06:01:33.577Z,38.51
2023-01-27T06:11:34.960Z,38.64
2023-01-27T06:21:36.356Z,38.49
2023-01-27T06:31:38.288Z,38.23
2023-01-27T06:41:39.753Z,38.36
2023-01-27T06:51:41.140Z,38.38
2023-01-27T07:01:42.610Z,38.28
2023-01-27T07:11:44.800Z,38.29
2023-01-27T07:21:46.277Z,38.40
2023-01-27T07:31:47.869Z,38.25
2023-01-27T07:41:49.624Z,38.32
2023-01-27T07:51:51.044Z,38.35
2023-01-27T08:01:52.428Z,38.13
2023-01-27T08:11:53.795Z,38.27
2023-01-27T08:21:55.225Z,38.20
2023-01-27T08:31:56.616Z,38.15
2023-01-27T08:41:58.009Z,38.03
2023-01-27T08:51:59.399Z,38.03
2023-01-27T09:02:00.794Z,37.92
2023-01-27T09:12:02.176Z,37.71
2023-01-27T09:22:03.560Z,37.38
2023-01-27T09:32:05.377Z,37.34
2023-01-27T09:42:14.389Z,37.45
2023-01-27T09:52:54.435Z,37.35
2023-01-27T10:03:01.361Z,37.32
2023-01-27T10:13:25.094Z,37.48
2023-01-27T10:23:54.387Z,37.62
2023-01-27T10:33:56.816Z,37.66
2023-01-27T10:44:21.948Z,37.26
2023-01-27T10:54:36.093Z,37.42
2023-01-27T11:04:44.629Z,37.27
2023-01-27T11:14:48.048Z,37.28
2023-01-27T11:24:59.276Z,37.28
2023-01-27T11:35:11.625Z,37.34
2023-01-27T11:45:17.375Z,37.31
2023-01-27T11:55:24.902Z,37.04
2023-01-27T12:05:37.851Z,37.14
2023-01-27T12:15:39.389Z,37.13
2023-01-27T12:25:47.907Z,37.30
2023-01-27T12:35:50.974Z,37.36
2023-01-27T12:46:18.690Z,37.47
2023-01-27T12:56:21.328Z,37.46
2023-01-27T13:06:49.614Z,37.56
2023-01-27T13:16:55.567Z,37.73
2023-01-27T13:27:05.546Z,37.86
2023-01-27T13:37:14.371Z,37.92
2023-01-27T13:47:18.255Z,38.08
2023-01-27T13:57:51.867Z,38.14
2023-01-27T14:08:14.309Z,38.41
2023-01-27T14:18:23.875Z,38.59
2023-01-27T14:28:46.736Z,38.34
2023-01-27T14:39:05.360Z,38.28
2023-01-27T14:49:21.822Z,38.83
2023-01-27T15:00:17.984Z,38.75
2023-01-27T15:10:28.828Z,38.76
2023-01-27T15:21:07.649Z,38.83
2023-01-27T15:31:15.285Z,39.07
2023-01-27T15:41:16.797Z,39.18
2023-01-27T15:51:19.402Z,39.27
2023-01-27T16:01:30.658Z,39.37
2023-01-27T16:11:31.891Z,39.46
2023-01-27T16:21:54.933Z,39.51
2023-01-27T16:32:00.919Z,39.63
2023-01-27T16:42:03.154Z,39.60
2023-01-27T16:52:04.848Z,39.75
2023-01-27T17:02:13.663Z,39.80
2023-01-27T17:12:36.551Z,39.78
2023-01-27T17:22:42.636Z,40.15
2023-01-27T17:32:46.504Z,40.02
2023-01-27T17:42:48.208Z,40.05
2023-01-27T17:52:52.779Z,40.19
2023-01-27T18:03:00.193Z,40.11
2023-01-27T18:13:11.206Z,40.15
2023-01-27T18:23:14.692Z,40.12
2023-01-27T18:33:16.643Z,40.15
2023-01-27T18:43:18.173Z,40.13
2023-01-27T18:53:20.353Z,40.07
2023-01-27T19:03:23.307Z,39.98
2023-01-27T19:13:24.867Z,39.94
2023-01-27T19:23:26.338Z,39.80
2023-01-27T19:33:28.208Z,39.58
2023-01-27T19:43:29.650Z,39.29
2023-01-27T19:53:31.021Z,39.11
2023-01-27T20:03:32.410Z,38.97
2023-01-27T20:13:33.804Z,38.78
2023-01-27T20:23:35.196Z,38.67
2023-01-27T20:33:36.595Z,38.82
2023-01-27T20:43:38.134Z,38.75
2023-01-27T20:53:45.232Z,38.79
2023-01-27T21:03:47.634Z,38.84
2023-01-27T21:13:49.706Z,39.00
2023-01-27T21:23:51.388Z,39.09
2023-01-27T21:33:52.975Z,39.16
2023-01-27T21:44:12.658Z,39.25
2023-01-27T21:54:14.191Z,39.23
2023-01-27T22:04:16.267Z,39.60
2023-01-27T22:14:17.794Z,39.70
2023-01-27T22:24:19.368Z,39.72
2023-01-27T22:34:20.775Z,39.88
2023-01-27T22:44:22.183Z,39.94
2023-01-27T22:54:23.611Z,39.82
2023-01-27T23:04:25.008Z,39.79
2023-01-27T23:14:26.393Z,39.80
2023-01-27T23:24:27.838Z,39.64
2023-01-27T23:34:29.377Z,39.43
2023-01-27T23:44:30.827Z,39.28
2023-01-27T23:54:32.465Z,39.27
